sensor_id;sensor_type;location;lat;lon;timestamp;P1;durP1;ratioP1;P2;durP2;ratioP2
12721;SDS011;6425;50.316;8.114;2023-06-10T00:00:00;15.3;;;13.6;;
12721;SDS011;6425;50.316;8.114;2023-06-10T00:03:00;15.1;;;13.6;;
12721;SDS011;6425;50.316;8.114;2023-06-10T00:06:00;15.1;;;13.6;;
12721;SDS011;6425;50.316;8.114;2023-06-10T00:09:00;15.1;;;13.6;;
12721;SDS011;6425;50.316;8.114;2023-06-10T00:12:00;14.9;;;13.4;;
12721;SDS011;6425;50.316;8.114;2023-06-10T00:15:00;14.9;;;13.4;;
12721;SDS011;6425;50.316;8.114;2023-06-10T00:18:00;15.2;;;13.7;;
12721;SDS011;6425;50.316;8.114;2023-06-10T00:21:00;15.2;;;13.7;;
12721;SDS011;6425;50.316;8.114;2023-06-10T00:24:00;15.3;;;13.8;;
12721;SDS011;6425;50.316;8.114;2023-06-10T00:27:00;16.1;;;14.3;;
12721;SDS011;6425;50.316;8.114;2023-06-10T00:30:00;16.1;;;14.3;;
12721;SDS011;6425;50.316;8.114;2023-06-10T00:33:00;15.1;;;13.7;;
12721;SDS011;6425;50.316;8.114;2023-06-10T00:36:00;15.1;;;13.7;;
12721;SDS011;6425;50.316;8.114;2023-06-10T00:39:00;17.2;;;15.5;;
12721;SDS011;6425;50.316;8.114;2023-06-10T00:42:00;18.3;;;16.4;;
12721;SDS011;6425;50.316;8.114;2023-06-10T00:45:00;18.3;;;16.4;;
12721;SDS011;6425;50.316;8.114;2023-06-10T00:48:00;15.4;;;13.8;;
12721;SDS011;6425;50.316;8.114;2023-06-10T00:51:00;15.4;;;13.8;;
12721;SDS011;6425;50.316;8.114;2023-06-10T00:54:00;17.6;;;14.6;;
12721;SDS011;6425;50.316;8.114;2023-06-10T00:57:00;17.6;;;14.6;;
12721;SDS011;6425;50.316;8.114;2023-06-10T01:00:00;17.6;;;14.6;;
12721;SDS011;6425;50.316;8.114;2023-06-10T01:03:00;16.4;;;14.7;;
12721;SDS011;6425;50.316;8.114;2023-06-10T01:06:01;16.4;;;14.7;;
12721;SDS011;6425;50.316;8.114;2023-06-10T01:09:02;18.9;;;14.9;;
12721;SDS011;6425;50.316;8.114;2023-06-10T01:12:02;18.5;;;16;;
12721;SDS011;6425;50.316;8.114;2023-06-10T01:15:00;18.5;;;16;;
12721;SDS011;6425;50.316;8.114;2023-06-10T01:18:01;17.2;;;15.4;;
12721;SDS011;6425;50.316;8.114;2023-06-10T01:21:00;17.2;;;15.4;;
12721;SDS011;6425;50.316;8.114;2023-06-10T01:24:00;17;;;15.2;;
12721;SDS011;6425;50.316;8.114;2023-06-10T01:27:00;16.4;;;14.9;;
12721;SDS011;6425;50.316;8.114;2023-06-10T01:30:02;16.4;;;14.9;;
12721;SDS011;6425;50.316;8.114;2023-06-10T01:33:00;18.1;;;15.2;;
12721;SDS011;6425;50.316;8.114;2023-06-10T01:36:00;18.1;;;15.2;;
12721;SDS011;6425;50.316;8.114;2023-06-10T01:39:00;20.1;;;15.9;;
12721;SDS011;6425;50.316;8.114;2023-06-10T01:42:00;18.2;;;16.2;;
12721;SDS011;6425;50.316;8.114;2023-06-10T01:45:00;18.2;;;16.2;;
12721;SDS011;6425;50.316;8.114;2023-06-10T01:48:00;19.5;;;16.8;;
12721;SDS011;6425;50.316;8.114;2023-06-10T01:51:00;19.5;;;16.8;;
12721;SDS011;6425;50.316;8.114;2023-06-10T01:54:00;18.1;;;15.8;;
12721;SDS011;6425;50.316;8.114;2023-06-10T01:57:00;18.7;;;15.7;;
12721;SDS011;6425;50.316;8.114;2023-06-10T02:00:00;18.7;;;15.7;;
12721;SDS011;6425;50.316;8.114;2023-06-10T02:03:00;18.4;;;15.9;;
12721;SDS011;6425;50.316;8.114;2023-06-10T02:06:00;24;;;16.7;;
12721;SDS011;6425;50.316;8.114;2023-06-10T02:09:00;24;;;16.7;;
12721;SDS011;6425;50.316;8.114;2023-06-10T02:12:00;18.8;;;16.8;;
12721;SDS011;6425;50.316;8.114;2023-06-10T02:15:00;18.8;;;16.8;;
12721;SDS011;6425;50.316;8.114;2023-06-10T02:18:00;18.7;;;16.7;;
12721;SDS011;6425;50.316;8.114;2023-06-10T02:21:00;23.3;;;17.8;;
12721;SDS011;6425;50.316;8.114;2023-06-10T02:24:00;23.3;;;17.8;;
12721;SDS011;6425;50.316;8.114;2023-06-10T02:27:00;21.3;;;17;;
12721;SDS011;6425;50.316;8.114;2023-06-10T02:30:00;21.3;;;17;;
12721;SDS011;6425;50.316;8.114;2023-06-10T02:33:00;22.3;;;18.2;;
12721;SDS011;6425;50.316;8.114;2023-06-10T02:36:00;23.5;;;17.1;;
12721;SDS011;6425;50.316;8.114;2023-06-10T02:39:00;23.5;;;17.1;;
12721;SDS011;6425;50.316;8.114;2023-06-10T02:42:00;20.9;;;17.6;;
12721;SDS011;6425;50.316;8.114;2023-06-10T02:45:00;20.9;;;17.6;;
12721;SDS011;6425;50.316;8.114;2023-06-10T02:48:00;20.2;;;18;;
12721;SDS011;6425;50.316;8.114;2023-06-10T02:51:00;20.4;;;17.5;;
12721;SDS011;6425;50.316;8.114;2023-06-10T02:54:00;20.4;;;17.5;;
12721;SDS011;6425;50.316;8.114;2023-06-10T02:57:00;19.3;;;16.9;;
12721;SDS011;6425;50.316;8.114;2023-06-10T03:00:00;19.3;;;16.9;;
12721;SDS011;6425;50.316;8.114;2023-06-10T03:03:00;22.7;;;17.6;;
12721;SDS011;6425;50.316;8.114;2023-06-10T03:06:00;21.7;;;17.4;;
12721;SDS011;6425;50.316;8.114;2023-06-10T03:09:00;21.7;;;17.4;;
12721;SDS011;6425;50.316;8.114;2023-06-10T03:12:00;20.2;;;16.9;;
12721;SDS011;6425;50.316;8.114;2023-06-10T03:15:00;20.2;;;16.9;;
12721;SDS011;6425;50.316;8.114;2023-06-10T03:18:00;22.1;;;17.7;;
12721;SDS011;6425;50.316;8.114;2023-06-10T03:21:00;24.3;;;18.1;;
12721;SDS011;6425;50.316;8.114;2023-06-10T03:24:00;24.3;;;18.1;;
12721;SDS011;6425;50.316;8.114;2023-06-10T03:27:00;19.6;;;17.5;;
12721;SDS011;6425;50.316;8.114;2023-06-10T03:30:00;19.6;;;17.5;;
12721;SDS011;6425;50.316;8.114;2023-06-10T03:33:00;23.4;;;17.4;;
12721;SDS011;6425;50.316;8.114;2023-06-10T03:36:00;20;;;18;;
12721;SDS011;6425;50.316;8.114;2023-06-10T03:39:00;20;;;18;;
12721;SDS011;6425;50.316;8.114;2023-06-10T03:42:00;24.4;;;17.4;;
12721;SDS011;6425;50.316;8.114;2023-06-10T03:45:00;24.4;;;17.4;;
12721;SDS011;6425;50.316;8.114;2023-06-10T03:48:00;19.8;;;16.8;;
12721;SDS011;6425;50.316;8.114;2023-06-10T03:51:00;21;;;17.5;;
12721;SDS011;6425;50.316;8.114;2023-06-10T03:54:00;21;;;17.5;;
12721;SDS011;6425;50.316;8.114;2023-06-10T03:57:00;21.7;;;17.3;;
12721;SDS011;6425;50.316;8.114;2023-06-10T04:00:00;21.7;;;17.3;;
12721;SDS011;6425;50.316;8.114;2023-06-10T04:03:00;20.8;;;17.4;;
12721;SDS011;6425;50.316;8.114;2023-06-10T04:06:00;20.4;;;16.6;;
12721;SDS011;6425;50.316;8.114;2023-06-10T04:09:00;20.4;;;16.6;;
12721;SDS011;6425;50.316;8.114;2023-06-10T04:12:00;19.6;;;16.1;;
12721;SDS011;6425;50.316;8.114;2023-06-10T04:15:00;19.6;;;16.1;;
12721;SDS011;6425;50.316;8.114;2023-06-10T04:18:00;17.1;;;15.3;;
12721;SDS011;6425;50.316;8.114;2023-06-10T04:21:00;19.6;;;16.1;;
12721;SDS011;6425;50.316;8.114;2023-06-10T04:24:00;19.6;;;16.1;;
12721;SDS011;6425;50.316;8.114;2023-06-10T04:27:00;17.9;;;14.1;;
12721;SDS011;6425;50.316;8.114;2023-06-10T04:30:00;17.9;;;14.1;;
12721;SDS011;6425;50.316;8.114;2023-06-10T04:33:00;17.9;;;14.7;;
12721;SDS011;6425;50.316;8.114;2023-06-10T04:36:00;17;;;13.7;;
12721;SDS011;6425;50.316;8.114;2023-06-10T04:39:00;17;;;13.7;;
12721;SDS011;6425;50.316;8.114;2023-06-10T04:42:00;27.4;;;13.9;;
12721;SDS011;6425;50.316;8.114;2023-06-10T04:45:00;27.4;;;13.9;;
12721;SDS011;6425;50.316;8.114;2023-06-10T04:48:00;23;;;13.4;;
12721;SDS011;6425;50.316;8.114;2023-06-10T04:51:00;18.9;;;14.4;;
12721;SDS011;6425;50.316;8.114;2023-06-10T04:54:00;18.9;;;14.4;;
12721;SDS011;6425;50.316;8.114;2023-06-10T04:57:00;16.4;;;13.4;;
12721;SDS011;6425;50.316;8.114;2023-06-10T05:00:00;16.4;;;13.4;;
12721;SDS011;6425;50.316;8.114;2023-06-10T05:03:00;15.5;;;13.6;;
12721;SDS011;6425;50.316;8.114;2023-06-10T05:06:00;15.3;;;13.3;;
12721;SDS011;6425;50.316;8.114;2023-06-10T05:09:00;15.3;;;13.3;;
12721;SDS011;6425;50.316;8.114;2023-06-10T05:12:00;19.5;;;13.8;;
12721;SDS011;6425;50.316;8.114;2023-06-10T05:15:00;19.5;;;13.8;;
12721;SDS011;6425;50.316;8.114;2023-06-10T05:18:00;18.8;;;14.7;;
12721;SDS011;6425;50.316;8.114;2023-06-10T05:21:00;19.1;;;14.7;;
12721;SDS011;6425;50.316;8.114;2023-06-10T05:24:00;19.1;;;14.7;;
12721;SDS011;6425;50.316;8.114;2023-06-10T05:27:00;16;;;14.3;;
12721;SDS011;6425;50.316;8.114;2023-06-10T05:30:00;16;;;14.3;;
12721;SDS011;6425;50.316;8.114;2023-06-10T05:33:00;16;;;14.1;;
12721;SDS011;6425;50.316;8.114;2023-06-10T05:36:00;16.2;;;14.5;;
12721;SDS011;6425;50.316;8.114;2023-06-10T05:39:00;16.2;;;14.5;;
12721;SDS011;6425;50.316;8.114;2023-06-10T05:42:00;16.9;;;15.1;;
12721;SDS011;6425;50.316;8.114;2023-06-10T05:45:00;16.9;;;15.1;;
12721;SDS011;6425;50.316;8.114;2023-06-10T05:48:00;17.3;;;15.3;;
12721;SDS011;6425;50.316;8.114;2023-06-10T05:51:00;17.8;;;14.8;;
12721;SDS011;6425;50.316;8.114;2023-06-10T05:54:00;17.8;;;14.8;;
12721;SDS011;6425;50.316;8.114;2023-06-10T05:57:00;16.8;;;15;;
12721;SDS011;6425;50.316;8.114;2023-06-10T06:00:00;16.8;;;15;;
12721;SDS011;6425;50.316;8.114;2023-06-10T06:03:00;17.2;;;14.5;;
12721;SDS011;6425;50.316;8.114;2023-06-10T06:06:00;16.7;;;13.9;;
12721;SDS011;6425;50.316;8.114;2023-06-10T06:09:00;16.7;;;13.9;;
12721;SDS011;6425;50.316;8.114;2023-06-10T06:12:00;16.7;;;14;;
12721;SDS011;6425;50.316;8.114;2023-06-10T06:15:00;16.5;;;14.1;;
12721;SDS011;6425;50.316;8.114;2023-06-10T06:18:00;16.3;;;14.3;;
12721;SDS011;6425;50.316;8.114;2023-06-10T06:21:00;17.8;;;13.5;;
12721;SDS011;6425;50.316;8.114;2023-06-10T06:24:00;17.8;;;13.5;;
12721;SDS011;6425;50.316;8.114;2023-06-10T06:27:00;11.2;;;9.4;;
12721;SDS011;6425;50.316;8.114;2023-06-10T06:30:00;9.8;;;8.8;;
12721;SDS011;6425;50.316;8.114;2023-06-10T06:33:00;9.8;;;8.8;;
12721;SDS011;6425;50.316;8.114;2023-06-10T06:36:00;11.5;;;8.8;;
12721;SDS011;6425;50.316;8.114;2023-06-10T06:39:00;11.5;;;8.8;;
12721;SDS011;6425;50.316;8.114;2023-06-10T06:42:00;9.5;;;8.5;;
12721;SDS011;6425;50.316;8.114;2023-06-10T06:45:00;9.2;;;8.2;;
12721;SDS011;6425;50.316;8.114;2023-06-10T06:48:00;9.2;;;8.2;;
12721;SDS011;6425;50.316;8.114;2023-06-10T06:51:00;9.5;;;8.4;;
12721;SDS011;6425;50.316;8.114;2023-06-10T06:54:00;9.5;;;8.4;;
12721;SDS011;6425;50.316;8.114;2023-06-10T06:57:00;11;;;9;;
12721;SDS011;6425;50.316;8.114;2023-06-10T07:00:00;9.6;;;8.6;;
12721;SDS011;6425;50.316;8.114;2023-06-10T07:03:00;9.6;;;8.6;;
12721;SDS011;6425;50.316;8.114;2023-06-10T07:06:00;10.9;;;8.1;;
12721;SDS011;6425;50.316;8.114;2023-06-10T07:09:00;10.9;;;8.1;;
12721;SDS011;6425;50.316;8.114;2023-06-10T07:12:00;9.5;;;8.5;;
12721;SDS011;6425;50.316;8.114;2023-06-10T07:15:00;9.3;;;8.4;;
12721;SDS011;6425;50.316;8.114;2023-06-10T07:18:00;9.3;;;8.4;;
12721;SDS011;6425;50.316;8.114;2023-06-10T07:21:00;8.6;;;7.8;;
12721;SDS011;6425;50.316;8.114;2023-06-10T07:24:00;8.6;;;7.8;;
12721;SDS011;6425;50.316;8.114;2023-06-10T07:27:00;9.9;;;8.5;;
12721;SDS011;6425;50.316;8.114;2023-06-10T07:30:00;9.4;;;8.1;;
12721;SDS011;6425;50.316;8.114;2023-06-10T07:33:00;9.4;;;8.1;;
12721;SDS011;6425;50.316;8.114;2023-06-10T07:36:00;9.2;;;8.3;;
12721;SDS011;6425;50.316;8.114;2023-06-10T07:39:00;9.2;;;8.3;;
12721;SDS011;6425;50.316;8.114;2023-06-10T07:42:00;9.3;;;8.3;;
12721;SDS011;6425;50.316;8.114;2023-06-10T07:45:00;9.1;;;8.2;;
12721;SDS011;6425;50.316;8.114;2023-06-10T07:48:00;9.1;;;8.2;;
12721;SDS011;6425;50.316;8.114;2023-06-10T07:51:00;9.6;;;8.1;;
12721;SDS011;6425;50.316;8.114;2023-06-10T07:54:00;9.6;;;8.1;;
12721;SDS011;6425;50.316;8.114;2023-06-10T07:57:00;10.6;;;8.5;;
12721;SDS011;6425;50.316;8.114;2023-06-10T08:00:00;11.5;;;8.9;;
12721;SDS011;6425;50.316;8.114;2023-06-10T08:03:00;11.5;;;8.9;;
12721;SDS011;6425;50.316;8.114;2023-06-10T08:06:00;9.2;;;8.3;;
12721;SDS011;6425;50.316;8.114;2023-06-10T08:09:00;9.2;;;8.3;;
12721;SDS011;6425;50.316;8.114;2023-06-10T08:12:00;10.3;;;8.1;;
12721;SDS011;6425;50.316;8.114;2023-06-10T08:15:00;9.5;;;8.6;;
12721;SDS011;6425;50.316;8.114;2023-06-10T08:18:00;9.5;;;8.6;;
12721;SDS011;6425;50.316;8.114;2023-06-10T08:21:00;10.2;;;9.1;;
12721;SDS011;6425;50.316;8.114;2023-06-10T08:24:00;10.2;;;9.1;;
12721;SDS011;6425;50.316;8.114;2023-06-10T08:27:00;10.1;;;9.1;;
12721;SDS011;6425;50.316;8.114;2023-06-10T08:30:00;9.7;;;8.7;;
12721;SDS011;6425;50.316;8.114;2023-06-10T08:33:00;9.7;;;8.7;;
12721;SDS011;6425;50.316;8.114;2023-06-10T08:36:00;12.6;;;8.8;;
12721;SDS011;6425;50.316;8.114;2023-06-10T08:39:00;12.6;;;8.8;;
12721;SDS011;6425;50.316;8.114;2023-06-10T08:42:00;16.2;;;8.6;;
12721;SDS011;6425;50.316;8.114;2023-06-10T08:45:00;10.8;;;8.1;;
12721;SDS011;6425;50.316;8.114;2023-06-10T08:48:00;10.8;;;8.1;;
12721;SDS011;6425;50.316;8.114;2023-06-10T08:51:00;11.8;;;9.1;;
12721;SDS011;6425;50.316;8.114;2023-06-10T08:54:01;11.8;;;9.1;;
12721;SDS011;6425;50.316;8.114;2023-06-10T08:57:00;9.1;;;8.2;;
12721;SDS011;6425;50.316;8.114;2023-06-10T09:00:00;9.2;;;8.3;;
12721;SDS011;6425;50.316;8.114;2023-06-10T09:03:00;9.2;;;8.3;;
12721;SDS011;6425;50.316;8.114;2023-06-10T09:06:00;10.5;;;8.4;;
12721;SDS011;6425;50.316;8.114;2023-06-10T09:09:00;10.5;;;8.4;;
12721;SDS011;6425;50.316;8.114;2023-06-10T09:12:00;9.1;;;7.8;;
12721;SDS011;6425;50.316;8.114;2023-06-10T09:15:00;9.1;;;8.1;;
12721;SDS011;6425;50.316;8.114;2023-06-10T09:18:00;9.1;;;8.1;;
12721;SDS011;6425;50.316;8.114;2023-06-10T09:21:00;8.6;;;7.7;;
12721;SDS011;6425;50.316;8.114;2023-06-10T09:24:00;8.6;;;7.7;;
12721;SDS011;6425;50.316;8.114;2023-06-10T09:27:03;12;;;8.2;;
12721;SDS011;6425;50.316;8.114;2023-06-10T09:30:00;7.8;;;7.1;;
12721;SDS011;6425;50.316;8.114;2023-06-10T09:33:00;7.8;;;7.1;;
12721;SDS011;6425;50.316;8.114;2023-06-10T09:36:00;8.2;;;7.5;;
12721;SDS011;6425;50.316;8.114;2023-06-10T09:39:00;8.2;;;7.5;;
12721;SDS011;6425;50.316;8.114;2023-06-10T09:42:00;8.4;;;7.6;;
12721;SDS011;6425;50.316;8.114;2023-06-10T09:45:00;8.6;;;7.7;;
12721;SDS011;6425;50.316;8.114;2023-06-10T09:48:00;8.6;;;7.7;;
12721;SDS011;6425;50.316;8.114;2023-06-10T09:51:00;8.6;;;7.7;;
12721;SDS011;6425;50.316;8.114;2023-06-10T09:54:02;8.6;;;7.7;;
12721;SDS011;6425;50.316;8.114;2023-06-10T09:57:00;10.2;;;7.3;;
12721;SDS011;6425;50.316;8.114;2023-06-10T10:00:02;7.7;;;7;;
12721;SDS011;6425;50.316;8.114;2023-06-10T10:03:00;7.7;;;7;;
12721;SDS011;6425;50.316;8.114;2023-06-10T10:06:00;8;;;7.2;;
12721;SDS011;6425;50.316;8.114;2023-06-10T10:09:00;8;;;7.2;;
12721;SDS011;6425;50.316;8.114;2023-06-10T10:12:00;8.4;;;7.4;;
12721;SDS011;6425;50.316;8.114;2023-06-10T10:15:00;7.5;;;6.8;;
12721;SDS011;6425;50.316;8.114;2023-06-10T10:18:02;7.5;;;6.8;;
12721;SDS011;6425;50.316;8.114;2023-06-10T10:21:00;9.1;;;7.1;;
12721;SDS011;6425;50.316;8.114;2023-06-10T10:24:01;9.1;;;7.1;;
12721;SDS011;6425;50.316;8.114;2023-06-10T10:27:00;10;;;6.9;;
12721;SDS011;6425;50.316;8.114;2023-06-10T10:30:00;7;;;6.3;;
12721;SDS011;6425;50.316;8.114;2023-06-10T10:33:00;7;;;6.3;;
12721;SDS011;6425;50.316;8.114;2023-06-10T10:36:00;7.5;;;6.8;;
12721;SDS011;6425;50.316;8.114;2023-06-10T10:39:00;7.5;;;6.8;;
12721;SDS011;6425;50.316;8.114;2023-06-10T10:42:00;6.9;;;6.3;;
12721;SDS011;6425;50.316;8.114;2023-06-10T10:45:00;8.2;;;6.4;;
12721;SDS011;6425;50.316;8.114;2023-06-10T10:48:04;8.2;;;6.4;;
12721;SDS011;6425;50.316;8.114;2023-06-10T10:51:00;11.7;;;7;;
12721;SDS011;6425;50.316;8.114;2023-06-10T10:54:17;11.7;;;7;;
12721;SDS011;6425;50.316;8.114;2023-06-10T10:57:16;7.2;;;6.5;;
12721;SDS011;6425;50.316;8.114;2023-06-10T11:00:00;7.9;;;6.6;;
12721;SDS011;6425;50.316;8.114;2023-06-10T11:03:04;7.9;;;6.6;;
12721;SDS011;6425;50.316;8.114;2023-06-10T11:06:00;8.6;;;6.2;;
12721;SDS011;6425;50.316;8.114;2023-06-10T11:09:00;8.6;;;6.2;;
12721;SDS011;6425;50.316;8.114;2023-06-10T11:12:00;7.4;;;6.2;;
12721;SDS011;6425;50.316;8.114;2023-06-10T11:15:00;6.1;;;5.5;;
12721;SDS011;6425;50.316;8.114;2023-06-10T11:18:19;6.1;;;5.5;;
12721;SDS011;6425;50.316;8.114;2023-06-10T11:21:00;6.6;;;6;;
12721;SDS011;6425;50.316;8.114;2023-06-10T11:24:00;6.6;;;6;;
12721;SDS011;6425;50.316;8.114;2023-06-10T11:27:16;7.1;;;6.5;;
12721;SDS011;6425;50.316;8.114;2023-06-10T11:30:17;7;;;6.3;;
12721;SDS011;6425;50.316;8.114;2023-06-10T11:33:00;7;;;6.3;;
12721;SDS011;6425;50.316;8.114;2023-06-10T11:36:00;7.5;;;6.7;;
12721;SDS011;6425;50.316;8.114;2023-06-10T11:39:00;7.5;;;6.7;;
12721;SDS011;6425;50.316;8.114;2023-06-10T11:42:00;7;;;6.3;;
12721;SDS011;6425;50.316;8.114;2023-06-10T11:45:00;10.8;;;7.2;;
12721;SDS011;6425;50.316;8.114;2023-06-10T11:48:00;10.8;;;7.2;;
12721;SDS011;6425;50.316;8.114;2023-06-10T11:51:00;7.7;;;6.7;;
12721;SDS011;6425;50.316;8.114;2023-06-10T11:54:00;7.7;;;6.7;;
12721;SDS011;6425;50.316;8.114;2023-06-10T11:57:00;8.2;;;6.2;;
12721;SDS011;6425;50.316;8.114;2023-06-10T12:00:03;7.6;;;6.4;;
12721;SDS011;6425;50.316;8.114;2023-06-10T12:03:00;7.6;;;6.4;;
12721;SDS011;6425;50.316;8.114;2023-06-10T12:06:01;7.4;;;6.7;;
12721;SDS011;6425;50.316;8.114;2023-06-10T12:09:00;7.4;;;6.7;;
12721;SDS011;6425;50.316;8.114;2023-06-10T12:12:00;9.1;;;6.4;;
12721;SDS011;6425;50.316;8.114;2023-06-10T12:15:00;7.4;;;6.4;;
12721;SDS011;6425;50.316;8.114;2023-06-10T12:18:00;7.4;;;6.4;;
12721;SDS011;6425;50.316;8.114;2023-06-10T12:21:00;6;;;5.4;;
12721;SDS011;6425;50.316;8.114;2023-06-10T12:24:01;6;;;5.4;;
12721;SDS011;6425;50.316;8.114;2023-06-10T12:27:00;6.3;;;5.7;;
12721;SDS011;6425;50.316;8.114;2023-06-10T12:30:00;7.1;;;5.1;;
12721;SDS011;6425;50.316;8.114;2023-06-10T12:33:00;7.1;;;5.1;;
12721;SDS011;6425;50.316;8.114;2023-06-10T12:36:00;6.6;;;5.2;;
12721;SDS011;6425;50.316;8.114;2023-06-10T12:39:02;6.6;;;5.2;;
12721;SDS011;6425;50.316;8.114;2023-06-10T12:42:00;6.8;;;4.9;;
12721;SDS011;6425;50.316;8.114;2023-06-10T12:45:00;5.5;;;5;;
12721;SDS011;6425;50.316;8.114;2023-06-10T12:48:07;5.5;;;5;;
12721;SDS011;6425;50.316;8.114;2023-06-10T12:51:00;9.8;;;5.2;;
12721;SDS011;6425;50.316;8.114;2023-06-10T12:54:00;9.8;;;5.2;;
12721;SDS011;6425;50.316;8.114;2023-06-10T12:57:00;6;;;5.1;;
12721;SDS011;6425;50.316;8.114;2023-06-10T13:00:00;7.2;;;5.1;;
12721;SDS011;6425;50.316;8.114;2023-06-10T13:03:00;7.2;;;5.1;;
12721;SDS011;6425;50.316;8.114;2023-06-10T13:06:00;5.6;;;5.1;;
12721;SDS011;6425;50.316;8.114;2023-06-10T13:09:00;5.6;;;5.1;;
12721;SDS011;6425;50.316;8.114;2023-06-10T13:12:00;6.7;;;4.8;;
12721;SDS011;6425;50.316;8.114;2023-06-10T13:15:00;5.1;;;4.7;;
12721;SDS011;6425;50.316;8.114;2023-06-10T13:18:00;5.1;;;4.7;;
12721;SDS011;6425;50.316;8.114;2023-06-10T13:21:00;5.7;;;5.2;;
12721;SDS011;6425;50.316;8.114;2023-06-10T13:24:00;5.7;;;5.2;;
12721;SDS011;6425;50.316;8.114;2023-06-10T13:27:00;5.4;;;5;;
12721;SDS011;6425;50.316;8.114;2023-06-10T13:30:00;6.2;;;5.3;;
12721;SDS011;6425;50.316;8.114;2023-06-10T13:33:00;6.2;;;5.3;;
12721;SDS011;6425;50.316;8.114;2023-06-10T13:36:00;5.5;;;5;;
12721;SDS011;6425;50.316;8.114;2023-06-10T13:39:00;5.5;;;5;;
12721;SDS011;6425;50.316;8.114;2023-06-10T13:42:00;6;;;5.2;;
12721;SDS011;6425;50.316;8.114;2023-06-10T13:45:00;5.8;;;5.1;;
12721;SDS011;6425;50.316;8.114;2023-06-10T13:48:00;5.8;;;5.1;;
12721;SDS011;6425;50.316;8.114;2023-06-10T13:51:00;5.7;;;4.9;;
12721;SDS011;6425;50.316;8.114;2023-06-10T13:54:00;5.7;;;4.9;;
12721;SDS011;6425;50.316;8.114;2023-06-10T13:57:00;5.9;;;5.3;;
12721;SDS011;6425;50.316;8.114;2023-06-10T14:00:00;5.9;;;5.4;;
12721;SDS011;6425;50.316;8.114;2023-06-10T14:03:00;5.9;;;5.4;;
12721;SDS011;6425;50.316;8.114;2023-06-10T14:06:00;6.9;;;5.3;;
12721;SDS011;6425;50.316;8.114;2023-06-10T14:09:00;6.9;;;5.3;;
12721;SDS011;6425;50.316;8.114;2023-06-10T14:12:00;5.9;;;5.3;;
12721;SDS011;6425;50.316;8.114;2023-06-10T14:15:00;6.1;;;5.4;;
12721;SDS011;6425;50.316;8.114;2023-06-10T14:18:00;6.1;;;5.4;;
12721;SDS011;6425;50.316;8.114;2023-06-10T14:21:00;6;;;5.2;;
12721;SDS011;6425;50.316;8.114;2023-06-10T14:24:00;6;;;5.2;;
12721;SDS011;6425;50.316;8.114;2023-06-10T14:27:00;5.7;;;5.1;;
12721;SDS011;6425;50.316;8.114;2023-06-10T14:30:00;6.8;;;5.5;;
12721;SDS011;6425;50.316;8.114;2023-06-10T14:33:00;6.8;;;5.5;;
12721;SDS011;6425;50.316;8.114;2023-06-10T14:36:00;6.6;;;5.7;;
12721;SDS011;6425;50.316;8.114;2023-06-10T14:39:00;6.6;;;5.7;;
12721;SDS011;6425;50.316;8.114;2023-06-10T14:42:00;6.3;;;5.1;;
12721;SDS011;6425;50.316;8.114;2023-06-10T14:45:00;6.7;;;5.4;;
12721;SDS011;6425;50.316;8.114;2023-06-10T14:48:00;6.7;;;5.4;;
12721;SDS011;6425;50.316;8.114;2023-06-10T14:51:00;6.1;;;5.5;;
12721;SDS011;6425;50.316;8.114;2023-06-10T14:54:00;6.1;;;5.5;;
12721;SDS011;6425;50.316;8.114;2023-06-10T14:57:00;7.4;;;6.7;;
12721;SDS011;6425;50.316;8.114;2023-06-10T15:00:00;6.3;;;5.7;;
12721;SDS011;6425;50.316;8.114;2023-06-10T15:03:00;6.3;;;5.7;;
12721;SDS011;6425;50.316;8.114;2023-06-10T15:06:00;7.5;;;5.5;;
12721;SDS011;6425;50.316;8.114;2023-06-10T15:09:00;7.5;;;5.5;;
12721;SDS011;6425;50.316;8.114;2023-06-10T15:12:00;5.9;;;5.4;;
12721;SDS011;6425;50.316;8.114;2023-06-10T15:15:00;6.3;;;5.7;;
12721;SDS011;6425;50.316;8.114;2023-06-10T15:18:00;6.3;;;5.7;;
12721;SDS011;6425;50.316;8.114;2023-06-10T15:21:00;6.5;;;5.3;;
12721;SDS011;6425;50.316;8.114;2023-06-10T15:24:00;6.5;;;5.3;;
12721;SDS011;6425;50.316;8.114;2023-06-10T15:27:00;6.4;;;5.3;;
12721;SDS011;6425;50.316;8.114;2023-06-10T15:30:00;7.7;;;5.8;;
12721;SDS011;6425;50.316;8.114;2023-06-10T15:33:00;7.7;;;5.8;;
12721;SDS011;6425;50.316;8.114;2023-06-10T15:36:00;6.2;;;5.6;;
12721;SDS011;6425;50.316;8.114;2023-06-10T15:39:00;6.2;;;5.6;;
12721;SDS011;6425;50.316;8.114;2023-06-10T15:42:00;6;;;5.5;;
12721;SDS011;6425;50.316;8.114;2023-06-10T15:45:00;7.1;;;6.3;;
12721;SDS011;6425;50.316;8.114;2023-06-10T15:48:00;7.1;;;6.3;;
12721;SDS011;6425;50.316;8.114;2023-06-10T15:51:00;6.4;;;5.8;;
12721;SDS011;6425;50.316;8.114;2023-06-10T15:54:00;6.4;;;5.8;;
12721;SDS011;6425;50.316;8.114;2023-06-10T15:57:00;7.3;;;5.6;;
12721;SDS011;6425;50.316;8.114;2023-06-10T16:00:00;6.7;;;6.1;;
12721;SDS011;6425;50.316;8.114;2023-06-10T16:03:00;6.7;;;6.1;;
12721;SDS011;6425;50.316;8.114;2023-06-10T16:06:00;7.4;;;5.8;;
12721;SDS011;6425;50.316;8.114;2023-06-10T16:09:00;7.4;;;5.8;;
12721;SDS011;6425;50.316;8.114;2023-06-10T16:12:00;6.2;;;5.6;;
12721;SDS011;6425;50.316;8.114;2023-06-10T16:15:00;6.1;;;5.6;;
12721;SDS011;6425;50.316;8.114;2023-06-10T16:18:00;6.1;;;5.6;;
12721;SDS011;6425;50.316;8.114;2023-06-10T16:21:00;6.2;;;5.6;;
12721;SDS011;6425;50.316;8.114;2023-06-10T16:24:00;6.2;;;5.6;;
12721;SDS011;6425;50.316;8.114;2023-06-10T16:27:00;6;;;5.4;;
12721;SDS011;6425;50.316;8.114;2023-06-10T16:30:00;5.8;;;5.4;;
12721;SDS011;6425;50.316;8.114;2023-06-10T16:33:00;5.8;;;5.4;;
12721;SDS011;6425;50.316;8.114;2023-06-10T16:36:00;6.3;;;5.7;;
12721;SDS011;6425;50.316;8.114;2023-06-10T16:39:00;6.3;;;5.7;;
12721;SDS011;6425;50.316;8.114;2023-06-10T16:42:00;6.2;;;5.7;;
12721;SDS011;6425;50.316;8.114;2023-06-10T16:45:00;6.6;;;6;;
12721;SDS011;6425;50.316;8.114;2023-06-10T16:48:00;6.6;;;6;;
12721;SDS011;6425;50.316;8.114;2023-06-10T16:51:00;8.5;;;6;;
12721;SDS011;6425;50.316;8.114;2023-06-10T16:54:00;8.5;;;6;;
12721;SDS011;6425;50.316;8.114;2023-06-10T16:57:00;5.9;;;5.4;;
12721;SDS011;6425;50.316;8.114;2023-06-10T17:00:00;6.3;;;5.2;;
12721;SDS011;6425;50.316;8.114;2023-06-10T17:03:00;6.3;;;5.2;;
12721;SDS011;6425;50.316;8.114;2023-06-10T17:06:00;6.4;;;5.7;;
12721;SDS011;6425;50.316;8.114;2023-06-10T17:09:00;6.4;;;5.7;;
12721;SDS011;6425;50.316;8.114;2023-06-10T17:12:00;5.8;;;5.3;;
12721;SDS011;6425;50.316;8.114;2023-06-10T17:15:00;6.7;;;6.1;;
12721;SDS011;6425;50.316;8.114;2023-06-10T17:18:00;6.7;;;6.1;;
12721;SDS011;6425;50.316;8.114;2023-06-10T17:21:00;5.6;;;5.1;;
12721;SDS011;6425;50.316;8.114;2023-06-10T17:24:00;5.6;;;5.1;;
12721;SDS011;6425;50.316;8.114;2023-06-10T17:27:00;6.1;;;5;;
12721;SDS011;6425;50.316;8.114;2023-06-10T17:30:00;5.6;;;5.2;;
12721;SDS011;6425;50.316;8.114;2023-06-10T17:33:00;5.6;;;5.2;;
12721;SDS011;6425;50.316;8.114;2023-06-10T17:36:00;5.8;;;5.4;;
12721;SDS011;6425;50.316;8.114;2023-06-10T17:39:00;5.8;;;5.4;;
12721;SDS011;6425;50.316;8.114;2023-06-10T17:42:00;5.9;;;5.3;;
12721;SDS011;6425;50.316;8.114;2023-06-10T17:45:00;5.8;;;5.4;;
12721;SDS011;6425;50.316;8.114;2023-06-10T17:48:00;5.8;;;5.4;;
12721;SDS011;6425;50.316;8.114;2023-06-10T17:51:00;7.3;;;6;;
12721;SDS011;6425;50.316;8.114;2023-06-10T17:54:00;7.3;;;6;;
12721;SDS011;6425;50.316;8.114;2023-06-10T17:57:00;6.5;;;5.6;;
12721;SDS011;6425;50.316;8.114;2023-06-10T18:00:00;6.3;;;5.8;;
12721;SDS011;6425;50.316;8.114;2023-06-10T18:03:00;6.3;;;5.8;;
12721;SDS011;6425;50.316;8.114;2023-06-10T18:06:00;7.1;;;6.4;;
12721;SDS011;6425;50.316;8.114;2023-06-10T18:09:00;7.1;;;6.4;;
12721;SDS011;6425;50.316;8.114;2023-06-10T18:12:00;6.4;;;5.8;;
12721;SDS011;6425;50.316;8.114;2023-06-10T18:15:00;7.1;;;6.4;;
12721;SDS011;6425;50.316;8.114;2023-06-10T18:18:00;7.1;;;6.4;;
12721;SDS011;6425;50.316;8.114;2023-06-10T18:21:00;7.5;;;6.9;;
12721;SDS011;6425;50.316;8.114;2023-06-10T18:24:00;7.5;;;6.9;;
12721;SDS011;6425;50.316;8.114;2023-06-10T18:27:00;7.7;;;6.2;;
12721;SDS011;6425;50.316;8.114;2023-06-10T18:30:00;7.2;;;6.6;;
12721;SDS011;6425;50.316;8.114;2023-06-10T18:33:00;7.2;;;6.6;;
12721;SDS011;6425;50.316;8.114;2023-06-10T18:36:00;7.6;;;6.9;;
12721;SDS011;6425;50.316;8.114;2023-06-10T18:39:00;7.6;;;6.9;;
12721;SDS011;6425;50.316;8.114;2023-06-10T18:42:00;8.1;;;7.3;;
12721;SDS011;6425;50.316;8.114;2023-06-10T18:45:00;8.7;;;8;;
12721;SDS011;6425;50.316;8.114;2023-06-10T18:48:00;8.7;;;8;;